Time;durP1;ratioP1;P1;durP2;ratioP2;P2;SDS_P1;SDS_P2;PMS_P1;PMS_P2;Temp;Humidity;BMP_temperature;BMP_pressure;BME280_temperature;BME280_humidity;BME280_pressure;Samples;Min_cycle;Max_cycle;Signal;HPM_P1;HPM_P2
2022/03/13 00:00:28;;;;;;;10.03;6.00;;;8.70;99.90;;;;;;5050258;28;20917;-63
2022/03/13 00:02:55;;;;;;;13.17;6.70;;;8.60;99.90;;;;;;5050378;28;20486;-63
2022/03/13 00:05:22;;;;;;;10.50;6.20;;;8.60;99.90;;;;;;5050215;28;20422;-63
2022/03/13 00:07:48;;;;;;;14.93;6.73;;;8.50;99.90;;;;;;5050035;28;20503;-63
2022/03/13 00:10:17;;;;;;;8.50;6.07;;;8.50;99.90;;;;;;5050026;28;20817;-63
2022/03/13 00:12:47;;;;;;;11.40;6.80;;;8.60;99.90;;;;;;5050191;28;20422;-64
2022/03/13 00:15:15;;;;;;;10.03;5.83;;;8.60;99.90;;;;;;5050139;28;20421;-64
2022/03/13 00:17:41;;;;;;;9.40;5.60;;;8.60;99.90;;;;;;5049853;28;20461;-64
2022/03/13 00:20:08;;;;;;;7.97;5.30;;;8.60;99.90;;;;;;5050166;28;20422;-64
2022/03/13 00:22:36;;;;;;;12.00;6.40;;;8.60;99.90;;;;;;5049871;28;20503;-64
2022/03/13 00:25:08;;;;;;;13.00;5.50;;;8.60;99.90;;;;;;5050137;28;20421;-64
2022/03/13 00:27:37;;;;;;;12.90;7.70;;;8.60;99.90;;;;;;5049124;28;20531;-64
2022/03/13 00:32:34;;;;;;;8.17;5.67;;;8.70;99.90;;;;;;5024848;28;20467;-81
2022/03/13 00:34:59;;;;;;;8.67;6.03;;;8.70;99.90;;;;;;5020411;28;21011;-81
2022/03/13 00:37:25;;;;;;;8.03;5.53;;;8.70;99.90;;;;;;5018461;28;20191;-81
2022/03/13 00:39:51;;;;;;;7.90;5.73;;;8.70;99.90;;;;;;5013652;28;20176;-81
2022/03/13 00:42:17;;;;;;;11.90;6.67;;;8.60;99.90;;;;;;5031310;28;20200;-81
2022/03/13 00:44:43;;;;;;;11.77;6.40;;;8.60;99.90;;;;;;5013547;28;20215;-81
2022/03/13 00:47:08;;;;;;;9.80;5.70;;;8.70;99.90;;;;;;5013334;28;20451;-80
2022/03/13 00:49:34;;;;;;;12.60;7.60;;;8.50;99.90;;;;;;5031337;28;20172;-81
2022/03/13 00:52:01;;;;;;;12.33;7.67;;;8.40;99.90;;;;;;5031314;28;20207;-81
2022/03/13 00:54:27;;;;;;;11.87;6.37;;;8.40;99.90;;;;;;5031345;28;20427;-81
2022/03/13 00:56:56;;;;;;;17.43;5.90;;;8.40;99.90;;;;;;5013299;28;20419;-81
2022/03/13 00:59:22;;;;;;;11.00;5.90;;;8.40;99.90;;;;;;5016158;28;20414;-81
2022/03/13 01:01:48;;;;;;;10.33;5.80;;;8.40;99.90;;;;;;5034872;28;20539;-81
2022/03/13 01:04:14;;;;;;;7.60;6.47;;;8.40;99.90;;;;;;5017047;28;20267;-81
2022/03/13 01:06:41;;;;;;;9.47;5.50;;;8.40;99.90;;;;;;5034856;28;20519;-81
2022/03/13 01:09:06;;;;;;;11.60;5.93;;;8.40;99.90;;;;;;5017635;28;20183;-82
2022/03/13 01:11:33;;;;;;;9.13;5.23;;;8.40;99.90;;;;;;5034661;28;20438;-82
2022/03/13 01:13:58;;;;;;;10.10;6.00;;;8.30;99.90;;;;;;5034892;28;20548;-81
2022/03/13 01:16:34;;;;;;;8.57;5.33;;;8.30;99.90;;;;;;5034385;28;20415;-81
2022/03/13 01:19:00;;;;;;;10.30;6.00;;;8.30;99.90;;;;;;5034508;28;20238;-81
2022/03/13 01:21:26;;;;;;;8.60;4.80;;;8.30;99.90;;;;;;5016732;28;20574;-81
2022/03/13 01:24:01;;;;;;;7.40;4.90;;;8.20;99.90;;;;;;5034573;28;20905;-81
2022/03/13 01:26:28;;;;;;;10.97;6.23;;;8.20;99.90;;;;;;5034201;28;20933;-81
2022/03/13 01:28:58;;;;;;;12.03;5.47;;;8.20;99.90;;;;;;5016790;28;20429;-81
2022/03/13 01:31:29;;;;;;;11.17;5.60;;;8.10;99.90;;;;;;5034178;28;20485;-81
2022/03/13 01:33:56;;;;;;;9.60;6.40;;;8.10;99.90;;;;;;5034482;28;20429;-82
2022/03/13 01:36:22;;;;;;;10.10;5.53;;;8.10;99.90;;;;;;5016313;28;20415;-80
2022/03/13 01:38:48;;;;;;;9.03;5.20;;;8.00;99.90;;;;;;5034101;28;20945;-82
2022/03/13 01:41:13;;;;;;;7.83;5.40;;;8.10;99.90;;;;;;5016325;28;21028;-82
2022/03/13 01:43:39;;;;;;;9.67;5.27;;;8.10;99.90;;;;;;5034097;28;20179;-82
2022/03/13 01:46:04;;;;;;;9.97;5.47;;;8.10;99.90;;;;;;5033535;28;20599;-80
2022/03/13 01:48:38;;;;;;;9.60;6.10;;;8.10;99.90;;;;;;5016005;28;20561;-81
2022/03/13 01:51:05;;;;;;;9.43;4.70;;;8.10;99.90;;;;;;5034191;28;20200;-81
2022/03/13 01:53:32;;;;;;;8.30;5.50;;;8.00;99.90;;;;;;5016205;28;20437;-81
2022/03/13 01:55:58;;;;;;;8.97;6.20;;;8.10;99.90;;;;;;5016082;28;20433;-81
2022/03/13 01:58:24;;;;;;;8.83;5.50;;;8.10;99.90;;;;;;5015866;28;20462;-81
2022/03/13 02:00:49;;;;;;;9.80;5.30;;;8.10;99.90;;;;;;5016055;28;20455;-82
2022/03/13 02:03:16;;;;;;;11.60;6.33;;;8.10;99.90;;;;;;5016151;28;20907;-82
2022/03/13 02:05:45;;;;;;;8.03;4.33;;;8.00;99.90;;;;;;5015870;28;20180;-82
2022/03/13 02:08:13;;;;;;;8.80;5.40;;;8.10;99.90;;;;;;5033452;28;20425;-81
2022/03/13 02:10:39;;;;;;;7.30;4.80;;;8.00;99.90;;;;;;5032265;28;20488;-81
2022/03/13 02:13:04;;;;;;;10.90;5.20;;;8.00;99.90;;;;;;5033712;28;20422;-80
2022/03/13 02:15:32;;;;;;;9.60;4.93;;;8.00;99.90;;;;;;5033393;28;20190;-82
2022/03/13 02:18:01;;;;;;;10.73;5.63;;;7.90;99.90;;;;;;5033522;28;20278;-81
2022/03/13 02:20:27;;;;;;;8.13;5.13;;;7.90;99.90;;;;;;5033392;28;20447;-81
2022/03/13 02:22:59;;;;;;;7.27;4.60;;;7.90;99.90;;;;;;5033356;28;20458;-82
2022/03/13 02:25:31;;;;;;;6.13;4.17;;;7.90;99.90;;;;;;5015616;28;21075;-82
2022/03/13 02:27:58;;;;;;;9.67;4.57;;;7.90;99.90;;;;;;5015408;28;20422;-81
2022/03/13 02:30:26;;;;;;;6.53;4.23;;;7.90;99.90;;;;;;5015348;28;20799;-81
2022/03/13 02:32:52;;;;;;;7.70;4.40;;;7.90;99.90;;;;;;5015446;28;20435;-80
2022/03/13 02:35:18;;;;;;;5.70;4.60;;;7.90;99.90;;;;;;5015492;28;20458;-82
2022/03/13 02:37:44;;;;;;;6.83;5.00;;;7.90;99.90;;;;;;5032734;28;20480;-80
2022/03/13 02:40:26;;;;;;;9.97;5.07;;;7.80;99.90;;;;;;5033030;28;20184;-80
2022/03/13 02:42:55;;;;;;;9.90;5.33;;;7.80;99.90;;;;;;5032835;28;20298;-81
2022/03/13 02:45:33;;;;;;;7.90;4.50;;;7.80;99.90;;;;;;5033039;28;20424;-81
2022/03/13 02:48:03;;;;;;;7.30;4.67;;;7.80;99.90;;;;;;5014950;28;20436;-81
2022/03/13 02:50:30;;;;;;;7.83;4.70;;;7.80;99.90;;;;;;5014771;28;20442;-81
2022/03/13 02:52:56;;;;;;;8.67;4.80;;;7.90;99.90;;;;;;5032513;28;20444;-80
2022/03/13 02:55:21;;;;;;;5.83;4.60;;;7.90;99.90;;;;;;5032774;28;20418;-81
2022/03/13 02:57:47;;;;;;;8.47;4.90;;;7.90;99.90;;;;;;5032387;28;20180;-81
2022/03/13 03:00:15;;;;;;;6.53;4.23;;;7.90;99.90;;;;;;5015104;28;20218;-82
2022/03/13 03:02:41;;;;;;;7.73;4.73;;;7.80;99.90;;;;;;5032575;28;20472;-81
2022/03/13 03:05:08;;;;;;;10.80;5.80;;;7.90;99.90;;;;;;5014818;28;20419;-82
2022/03/13 03:07:35;;;;;;;6.70;4.23;;;7.90;99.90;;;;;;5014519;28;20508;-82
2022/03/13 03:10:02;;;;;;;7.30;4.60;;;7.90;99.90;;;;;;5032422;28;20423;-81
2022/03/13 03:12:28;;;;;;;4.97;4.13;;;7.80;99.90;;;;;;5032485;28;20418;-82
2022/03/13 03:14:54;;;;;;;7.07;5.67;;;7.80;99.90;;;;;;5014706;28;20476;-82
2022/03/13 03:17:19;;;;;;;8.40;5.00;;;7.80;99.90;;;;;;5032185;28;20188;-82
2022/03/13 03:19:45;;;;;;;10.80;4.80;;;7.70;99.90;;;;;;5014683;28;20458;-81
2022/03/13 03:22:11;;;;;;;9.20;5.10;;;7.70;99.90;;;;;;5031822;28;20217;-81
2022/03/13 03:24:37;;;;;;;7.20;4.53;;;7.70;99.90;;;;;;5032364;28;20192;-81
2022/03/13 03:27:03;;;;;;;7.13;4.50;;;7.70;99.90;;;;;;5014237;28;20418;-82
2022/03/13 03:29:29;;;;;;;7.90;4.60;;;7.70;99.90;;;;;;5032348;28;20266;-81
2022/03/13 03:31:56;;;;;;;6.00;3.80;;;7.70;99.90;;;;;;5032073;28;21007;-81
2022/03/13 03:34:24;;;;;;;9.97;4.80;;;7.60;99.90;;;;;;5032344;28;20438;-81
2022/03/13 03:36:51;;;;;;;9.03;4.70;;;7.60;99.90;;;;;;5013943;28;20431;-81
2022/03/13 03:39:18;;;;;;;13.00;5.70;;;7.60;99.90;;;;;;5032135;28;20424;-81
2022/03/13 03:41:47;;;;;;;10.10;4.90;;;7.50;99.90;;;;;;5031934;28;20548;-81
2022/03/13 03:44:13;;;;;;;6.67;4.17;;;7.50;99.90;;;;;;5032162;28;20410;-82
2022/03/13 03:46:41;;;;;;;8.07;5.03;;;7.50;99.90;;;;;;5013721;28;20475;-81
2022/03/13 03:49:07;;;;;;;7.03;5.23;;;7.50;99.90;;;;;;5032222;28;20486;-81
2022/03/13 03:51:33;;;;;;;9.17;4.83;;;7.60;99.90;;;;;;5032008;28;20442;-81
2022/03/13 03:54:00;;;;;;;8.50;5.33;;;7.60;99.90;;;;;;5014175;28;20426;-82
2022/03/13 03:56:25;;;;;;;6.67;4.23;;;7.60;99.90;;;;;;5031691;28;20433;-78
2022/03/13 03:58:51;;;;;;;8.77;4.53;;;7.50;99.90;;;;;;5031734;28;20409;-82
2022/03/13 04:01:17;;;;;;;8.70;4.70;;;7.50;99.90;;;;;;5014164;28;20205;-81
2022/03/13 04:03:42;;;;;;;7.00;5.13;;;7.60;99.90;;;;;;5031871;28;20171;-81
2022/03/13 04:06:08;;;;;;;7.80;4.73;;;7.60;99.90;;;;;;5013969;28;20192;-81
2022/03/13 04:08:34;;;;;;;8.60;4.60;;;7.60;99.90;;;;;;5031627;28;20717;-81
2022/03/13 04:11:00;;;;;;;8.23;3.77;;;7.60;99.90;;;;;;5014050;28;20440;-81
2022/03/13 04:13:28;;;;;;;7.30;4.20;;;7.60;99.90;;;;;;5013960;28;20268;-80
2022/03/13 04:15:54;;;;;;;7.00;4.77;;;7.70;99.90;;;;;;5013846;28;20460;-81
2022/03/13 04:18:20;;;;;;;6.37;4.57;;;7.70;99.90;;;;;;5031043;28;20429;-82
2022/03/13 04:20:45;;;;;;;7.40;5.70;;;7.80;99.90;;;;;;5031513;28;20444;-82
2022/03/13 04:23:11;;;;;;;11.13;3.83;;;7.80;99.90;;;;;;5014021;28;20290;-82
2022/03/13 04:25:38;;;;;;;8.30;4.73;;;7.80;99.90;;;;;;5013702;28;20447;-82
2022/03/13 04:28:05;;;;;;;9.03;4.37;;;7.90;99.00;;;;;;5013768;28;20183;-81
2022/03/13 04:30:31;;;;;;;7.30;4.40;;;8.00;99.70;;;;;;5013814;28;20447;-81
2022/03/13 04:33:00;;;;;;;9.23;5.07;;;8.00;96.60;;;;;;5014868;28;20791;-80
2022/03/13 04:35:26;;;;;;;8.70;4.40;;;8.10;95.80;;;;;;5017686;28;20464;-81
2022/03/13 04:37:52;;;;;;;5.90;4.00;;;8.20;94.90;;;;;;5035262;28;21017;-82
2022/03/13 04:40:17;;;;;;;7.33;4.13;;;8.30;93.90;;;;;;5035358;28;20686;-81
2022/03/13 04:42:43;;;;;;;6.43;4.17;;;8.40;94.70;;;;;;5035162;28;20264;-81
2022/03/13 04:45:09;;;;;;;12.90;5.80;;;8.40;93.80;;;;;;5035280;28;20176;-80
2022/03/13 04:47:35;;;;;;;6.97;3.97;;;8.40;92.50;;;;;;5017134;28;20423;-81
2022/03/13 04:50:01;;;;;;;9.83;4.90;;;8.40;92.60;;;;;;5017475;28;20406;-82
2022/03/13 04:52:27;;;;;;;5.60;4.00;;;8.30;92.20;;;;;;5035243;28;20267;-82
2022/03/13 04:54:53;;;;;;;6.23;4.50;;;8.30;92.80;;;;;;5035145;28;20180;-81
2022/03/13 04:57:20;;;;;;;11.03;5.27;;;8.30;92.80;;;;;;5034647;28;20426;-82
2022/03/13 04:59:45;;;;;;;8.87;3.97;;;8.40;92.70;;;;;;5017526;28;21032;-81
2022/03/13 05:02:11;;;;;;;8.80;4.27;;;8.40;92.30;;;;;;5034764;28;20541;-82
2022/03/13 05:04:37;;;;;;;6.40;4.63;;;8.50;91.30;;;;;;5017536;28;20563;-81
2022/03/13 05:07:03;;;;;;;7.53;4.73;;;8.50;88.90;;;;;;5042816;28;20257;-81
2022/03/13 05:09:28;;;;;;;6.47;4.43;;;8.50;88.50;;;;;;5025320;28;20545;-81
2022/03/13 05:11:54;;;;;;;8.07;4.20;;;8.40;88.10;;;;;;5017329;28;20253;-81
2022/03/13 05:14:20;;;;;;;6.33;4.07;;;8.40;87.70;;;;;;5034822;28;20175;-81
2022/03/13 05:16:46;;;;;;;8.77;4.17;;;8.50;86.70;;;;;;5016738;28;20423;-81
2022/03/13 05:19:12;;;;;;;8.33;4.30;;;8.50;88.50;;;;;;5016721;28;20190;-81
2022/03/13 05:21:37;;;;;;;7.23;3.70;;;8.50;87.80;;;;;;5016796;28;20364;-82
2022/03/13 05:24:03;;;;;;;5.97;3.83;;;8.60;85.30;;;;;;5034591;28;20234;-81
2022/03/13 05:26:29;;;;;;;7.60;5.40;;;8.60;86.20;;;;;;5033897;28;20180;-81
2022/03/13 05:28:55;;;;;;;6.97;4.10;;;8.60;85.30;;;;;;5016563;28;20274;-81
2022/03/13 05:31:20;;;;;;;6.83;4.20;;;8.60;83.80;;;;;;5016445;28;20212;-81
2022/03/13 05:33:46;;;;;;;6.67;4.37;;;8.60;84.00;;;;;;5034357;28;20476;-81
2022/03/13 05:36:12;;;;;;;6.00;3.93;;;8.70;82.40;;;;;;5034074;28;20185;-81
2022/03/13 05:38:38;;;;;;;7.80;4.50;;;8.70;82.50;;;;;;5016403;28;20182;-81
2022/03/13 05:41:04;;;;;;;9.33;4.60;;;8.70;81.10;;;;;;5034157;28;20439;-81
2022/03/13 05:43:32;;;;;;;6.03;4.50;;;8.70;80.00;;;;;;5033991;28;20831;-81
2022/03/13 05:45:58;;;;;;;9.50;4.80;;;8.70;79.10;;;;;;5033936;28;20420;-81
2022/03/13 05:48:25;;;;;;;6.17;3.43;;;8.60;79.60;;;;;;5016119;28;20510;-81
2022/03/13 05:50:52;;;;;;;6.93;3.73;;;8.60;76.80;;;;;;5016231;28;20450;-82
2022/03/13 05:53:17;;;;;;;10.07;4.50;;;8.60;76.70;;;;;;5034072;28;20508;-81
2022/03/13 05:55:43;;;;;;;9.53;4.80;;;8.60;75.80;;;;;;5016342;28;20482;-81
2022/03/13 05:58:09;;;;;;;9.87;4.43;;;8.60;75.70;;;;;;5015785;28;20797;-80
2022/03/13 06:00:36;;;;;;;8.07;4.70;;;8.60;76.70;;;;;;5016093;28;20347;-81
2022/03/13 06:03:02;;;;;;;8.17;4.07;;;8.60;76.40;;;;;;5015904;28;20211;-82
2022/03/13 06:05:31;;;;;;;5.50;4.53;;;8.50;76.50;;;;;;5033722;28;20999;-81
2022/03/13 06:07:57;;;;;;;7.17;4.20;;;8.60;75.70;;;;;;5015627;28;20431;-81
2022/03/13 06:10:23;;;;;;;8.53;4.73;;;8.60;74.90;;;;;;5033824;28;20487;-81
2022/03/13 06:12:49;;;;;;;6.50;4.43;;;8.60;74.70;;;;;;5015814;28;20677;-80
2022/03/13 06:15:17;;;;;;;7.63;5.30;;;8.60;74.70;;;;;;5032249;28;20449;-81
2022/03/13 06:17:44;;;;;;;7.50;4.80;;;8.60;74.50;;;;;;5040263;28;20262;-81
2022/03/13 06:20:12;;;;;;;9.60;5.00;;;8.60;75.10;;;;;;5027032;28;20441;-81
2022/03/13 06:22:43;;;;;;;7.60;5.70;;;8.60;75.70;;;;;;5035636;28;21099;-81
2022/03/13 06:25:11;;;;;;;13.97;4.87;;;8.70;75.20;;;;;;5045011;28;20413;-81
2022/03/13 06:27:38;;;;;;;6.20;4.37;;;8.70;75.20;;;;;;5035248;28;20429;-81
2022/03/13 06:30:16;;;;;;;7.47;4.00;;;8.70;74.20;;;;;;5027402;28;20462;-80
2022/03/13 06:32:44;;;;;;;7.77;4.13;;;8.80;74.20;;;;;;5040691;22;20507;-81
2022/03/13 06:35:11;;;;;;;7.80;3.80;;;8.70;75.40;;;;;;5014272;28;20419;-81
2022/03/13 06:37:38;;;;;;;6.37;3.63;;;8.80;73.10;;;;;;5013933;28;20948;-81
2022/03/13 06:40:05;;;;;;;7.07;4.77;;;8.90;73.40;;;;;;5013776;28;20408;-81
2022/03/13 06:42:31;;;;;;;9.37;5.37;;;8.90;73.90;;;;;;5028726;28;20455;-80
2022/03/13 06:44:57;;;;;;;11.43;4.30;;;8.90;74.40;;;;;;5013355;28;20423;-81
2022/03/13 06:47:23;;;;;;;6.67;4.90;;;8.90;74.20;;;;;;5028334;28;20184;-81
2022/03/13 06:49:49;;;;;;;8.90;4.50;;;9.00;72.30;;;;;;5014456;28;20234;-82
2022/03/13 06:52:15;;;;;;;7.40;4.53;;;9.00;73.40;;;;;;5028764;28;20463;-81
2022/03/13 06:54:41;;;;;;;7.57;4.57;;;9.00;72.40;;;;;;5012509;28;20420;-81
2022/03/13 06:57:07;;;;;;;5.60;3.80;;;9.10;73.00;;;;;;5012432;28;20570;-81
2022/03/13 06:59:32;;;;;;;6.77;4.07;;;9.20;74.00;;;;;;5012383;28;20419;-81
2022/03/13 07:01:58;;;;;;;5.70;3.77;;;9.20;73.70;;;;;;5033383;28;20459;-82
2022/03/13 07:04:23;;;;;;;9.50;4.47;;;9.30;71.80;;;;;;5033390;28;20173;-82
2022/03/13 07:06:49;;;;;;;6.63;3.80;;;9.40;70.50;;;;;;5027030;28;20177;-81
2022/03/13 07:09:14;;;;;;;7.43;4.90;;;9.40;70.40;;;;;;5013547;28;20184;-82
2022/03/13 07:11:48;;;;;;;9.07;5.00;;;9.40;70.10;;;;;;5013656;28;20201;-81
2022/03/13 07:14:14;;;;;;;9.33;4.70;;;9.50;70.90;;;;;;5028847;28;20181;-82
2022/03/13 07:16:39;;;;;;;12.03;4.77;;;9.40;71.00;;;;;;5028490;28;20481;-81
2022/03/13 07:19:05;;;;;;;9.10;5.80;;;9.40;70.70;;;;;;5028291;28;20934;-82
2022/03/13 07:21:30;;;;;;;7.57;4.33;;;9.50;71.60;;;;;;5028194;28;20680;-82
2022/03/13 07:23:56;;;;;;;10.37;5.07;;;9.60;70.20;;;;;;5013364;28;20699;-81
2022/03/13 07:26:22;;;;;;;6.20;4.67;;;9.70;69.10;;;;;;5028007;28;20185;-80
2022/03/13 07:28:47;;;;;;;6.80;3.70;;;9.80;67.40;;;;;;5012993;28;20257;-81
2022/03/13 07:31:13;;;;;;;8.70;4.77;;;9.90;68.80;;;;;;5030451;28;20362;-81
2022/03/13 07:33:39;;;;;;;12.27;4.43;;;10.00;66.60;;;;;;5032999;28;20157;-81
2022/03/13 07:36:05;;;;;;;7.70;4.47;;;10.10;65.20;;;;;;5030979;28;20427;-83
2022/03/13 07:38:30;;;;;;;10.13;5.47;;;10.20;64.70;;;;;;5008012;28;20192;-81
2022/03/13 07:40:56;;;;;;;7.20;4.30;;;10.30;66.30;;;;;;5012565;28;20652;-81
2022/03/13 07:43:21;;;;;;;8.03;4.53;;;10.30;63.80;;;;;;5012556;28;20236;-81
2022/03/13 07:45:47;;;;;;;6.43;4.40;;;10.30;65.00;;;;;;5012563;28;20174;-81
2022/03/13 07:48:13;;;;;;;7.50;5.00;;;10.30;64.00;;;;;;5028262;28;20266;-81
2022/03/13 07:50:38;;;;;;;6.50;4.47;;;10.40;63.70;;;;;;5028100;28;20176;-81
2022/03/13 07:53:04;;;;;;;8.37;4.23;;;10.40;62.90;;;;;;5012888;28;20236;-81
2022/03/13 07:55:30;;;;;;;7.27;4.43;;;10.50;62.10;;;;;;5012575;28;20215;-82
2022/03/13 07:57:55;;;;;;;7.63;4.57;;;10.40;61.90;;;;;;5011124;28;20215;-83
2022/03/13 08:00:22;;;;;;;8.43;5.17;;;10.30;60.30;;;;;;5012491;28;20196;-81
2022/03/13 08:02:49;;;;;;;8.00;4.40;;;10.10;60.80;;;;;;5027413;28;20683;-80
2022/03/13 08:05:16;;;;;;;9.40;5.20;;;10.00;60.10;;;;;;5010995;28;20456;-81
2022/03/13 08:07:42;;;;;;;7.40;5.30;;;9.90;62.50;;;;;;5012482;28;20428;-81
2022/03/13 08:10:09;;;;;;;9.13;5.03;;;9.80;63.60;;;;;;5015035;28;20507;-81
2022/03/13 08:12:34;;;;;;;8.63;4.80;;;10.00;62.90;;;;;;5016496;28;20479;-81
2022/03/13 08:15:00;;;;;;;7.33;4.77;;;10.10;60.10;;;;;;5015033;28;20464;-81
2022/03/13 08:17:25;;;;;;;8.40;4.50;;;10.30;59.70;;;;;;5014503;28;20657;-80
2022/03/13 08:19:54;;;;;;;7.10;4.33;;;10.40;59.80;;;;;;5014969;28;20203;-81
2022/03/13 08:22:20;;;;;;;8.53;4.30;;;10.50;58.80;;;;;;5016027;28;20667;-81
2022/03/13 08:24:45;;;;;;;8.73;4.57;;;10.60;59.80;;;;;;5016142;28;20527;-80
2022/03/13 08:27:11;;;;;;;8.00;4.07;;;10.70;58.50;;;;;;5015580;28;20226;-80
2022/03/13 08:29:36;;;;;;;7.07;4.50;;;10.70;58.30;;;;;;5016217;28;20177;-81
2022/03/13 08:32:03;;;;;;;7.00;4.53;;;10.60;58.60;;;;;;5016200;28;20229;-80
2022/03/13 08:34:30;;;;;;;7.53;4.50;;;10.60;59.30;;;;;;5031639;28;20565;-81
2022/03/13 08:36:56;;;;;;;8.93;5.13;;;10.60;58.60;;;;;;5015626;28;20889;-81
2022/03/13 08:39:22;;;;;;;6.90;4.73;;;10.60;57.50;;;;;;5014475;28;20432;-81
2022/03/13 08:41:47;;;;;;;7.53;4.30;;;10.70;58.80;;;;;;5015154;28;20559;-82
2022/03/13 08:44:13;;;;;;;6.63;5.23;;;10.80;57.00;;;;;;5015012;28;20184;-83
2022/03/13 08:46:39;;;;;;;7.60;4.40;;;10.80;57.80;;;;;;5015371;28;20173;-80
2022/03/13 08:49:07;;;;;;;8.30;4.73;;;10.90;57.30;;;;;;5022084;28;20475;-81
2022/03/13 08:51:33;;;;;;;11.40;5.33;;;11.00;58.10;;;;;;5014458;28;20199;-80
2022/03/13 08:53:59;;;;;;;10.30;5.97;;;11.00;56.30;;;;;;5014147;28;20426;-80
2022/03/13 08:56:25;;;;;;;10.00;5.03;;;11.10;56.90;;;;;;5015168;28;21760;-80
2022/03/13 08:58:50;;;;;;;7.83;4.20;;;11.20;56.90;;;;;;5015191;28;20177;-81
2022/03/13 09:01:17;;;;;;;11.00;4.90;;;11.30;56.80;;;;;;5015902;28;20506;-81
2022/03/13 09:03:43;;;;;;;8.30;4.80;;;11.40;57.60;;;;;;5030506;28;20219;-82
2022/03/13 09:06:09;;;;;;;8.53;4.63;;;11.40;57.00;;;;;;5014699;28;20427;-81
2022/03/13 09:08:34;;;;;;;7.07;4.70;;;11.40;56.90;;;;;;5030319;28;20206;-82
2022/03/13 09:11:00;;;;;;;9.00;4.80;;;11.40;56.90;;;;;;5013810;28;20475;-82
2022/03/13 09:13:26;;;;;;;8.80;4.87;;;11.40;57.90;;;;;;5030686;28;20191;-81
2022/03/13 09:15:51;;;;;;;12.53;5.10;;;11.50;57.80;;;;;;5015150;28;20183;-82
2022/03/13 09:18:17;;;;;;;7.27;4.30;;;11.60;57.10;;;;;;5014700;28;20188;-82
2022/03/13 09:20:43;;;;;;;9.53;5.37;;;11.60;56.60;;;;;;5014410;28;20187;-81
2022/03/13 09:23:08;;;;;;;8.07;4.47;;;11.70;56.90;;;;;;5015136;28;20208;-83
2022/03/13 09:25:35;;;;;;;8.50;5.20;;;11.80;55.90;;;;;;5030584;28;20181;-81
2022/03/13 09:28:01;;;;;;;9.63;5.70;;;11.80;55.80;;;;;;5015295;28;20180;-82
2022/03/13 09:30:27;;;;;;;7.93;4.70;;;11.80;56.50;;;;;;5031058;28;20465;-83
2022/03/13 09:32:53;;;;;;;8.90;5.27;;;11.80;56.40;;;;;;5030064;28;20495;-81
2022/03/13 09:35:18;;;;;;;10.23;5.50;;;11.70;56.00;;;;;;5015137;28;20181;-81
2022/03/13 09:37:45;;;;;;;7.47;5.73;;;11.70;57.20;;;;;;5029770;28;20196;-80
2022/03/13 09:40:12;;;;;;;10.13;5.23;;;11.80;57.40;;;;;;5014740;28;20185;-81
2022/03/13 09:42:38;;;;;;;9.93;5.23;;;11.80;56.50;;;;;;5015797;28;21041;-81
2022/03/13 09:45:04;;;;;;;9.10;5.60;;;11.80;56.10;;;;;;5014975;28;20416;-82
2022/03/13 09:47:30;;;;;;;6.90;4.97;;;11.90;56.00;;;;;;5029963;28;20432;-81
2022/03/13 09:49:56;;;;;;;7.87;4.50;;;11.90;55.80;;;;;;5014727;28;20454;-81
2022/03/13 09:52:22;;;;;;;8.30;5.50;;;11.90;56.30;;;;;;5029629;28;20459;-80
2022/03/13 09:54:47;;;;;;;9.23;4.87;;;11.90;56.00;;;;;;5014727;28;20177;-80
2022/03/13 09:57:14;;;;;;;9.00;5.70;;;12.00;56.60;;;;;;5014412;28;20239;-81
2022/03/13 09:59:40;;;;;;;7.20;5.13;;;12.20;57.20;;;;;;5013347;28;20181;-81
2022/03/13 10:02:07;;;;;;;8.93;5.93;;;12.50;56.90;;;;;;5029669;28;20984;-82
2022/03/13 10:04:34;;;;;;;8.43;5.53;;;12.80;55.80;;;;;;5029170;28;20436;-83
2022/03/13 10:07:07;;;;;;;6.97;4.23;;;13.90;56.00;;;;;;5011737;28;20435;-83
2022/03/13 10:09:34;;;;;;;12.10;5.30;;;16.00;55.60;;;;;;4993759;28;20409;-81
2022/03/13 10:12:13;;;;;;;10.47;4.83;;;18.20;50.90;;;;;;4995772;28;20428;-82
2022/03/13 10:15:06;;;;;;;8.97;5.20;;;19.60;48.10;;;;;;4994929;28;20431;-80
2022/03/13 10:17:35;;;;;;;8.97;5.97;;;21.10;44.90;;;;;;5000287;28;20506;-82
2022/03/13 10:20:15;;;;;;;11.67;7.10;;;22.60;40.50;;;;;;5014604;28;20790;-84
2022/03/13 10:22:49;;;;;;;8.03;5.80;;;23.30;38.60;;;;;;5015486;28;20982;-85
2022/03/13 10:25:34;;;;;;;8.87;5.57;;;23.50;37.00;;;;;;5029584;28;20438;-82
2022/03/13 10:28:17;;;;;;;8.53;6.10;;;25.10;35.10;;;;;;5014850;28;20784;-85
2022/03/13 10:30:44;;;;;;;8.20;6.20;;;26.10;34.80;;;;;;5029161;28;20420;-84
2022/03/13 10:33:10;;;;;;;9.80;7.50;;;27.90;31.20;;;;;;5014330;28;20440;-82
2022/03/13 10:35:36;;;;;;;11.40;7.90;;;28.50;31.00;;;;;;5015799;28;20846;-83
2022/03/13 10:38:19;;;;;;;8.30;6.37;;;29.40;29.50;;;;;;5014866;28;20660;-80
2022/03/13 10:40:50;;;;;;;13.77;6.70;;;29.90;28.50;;;;;;5014548;28;20542;-81
2022/03/13 10:43:19;;;;;;;9.27;7.13;;;30.20;27.10;;;;;;5033536;28;20416;-80
2022/03/13 10:45:54;;;;;;;10.07;7.07;;;29.50;27.20;;;;;;5034079;28;20848;-84
2022/03/13 10:48:28;;;;;;;10.87;7.50;;;29.20;27.30;;;;;;5019438;28;20400;-82
2022/03/13 10:50:58;;;;;;;9.47;6.87;;;29.30;27.40;;;;;;5034364;28;20856;-81
2022/03/13 10:53:24;;;;;;;8.70;7.77;;;30.70;27.00;;;;;;5018235;28;20447;-80
2022/03/13 10:56:14;;;;;;;9.57;7.27;;;31.10;26.30;;;;;;5031713;28;20459;-80
2022/03/13 10:58:48;;;;;;;9.97;7.20;;;31.60;26.40;;;;;;5014906;28;20416;-80
2022/03/13 11:01:19;;;;;;;8.27;6.20;;;32.50;26.40;;;;;;5015305;28;20435;-80
2022/03/13 11:03:52;;;;;;;8.70;6.80;;;32.90;25.60;;;;;;5017197;28;20396;-81
2022/03/13 11:06:21;;;;;;;9.70;6.70;;;33.10;25.40;;;;;;5017516;28;20412;-82
2022/03/13 11:08:52;;;;;;;9.57;7.20;;;32.50;24.70;;;;;;5030956;28;20469;-82
2022/03/13 11:11:18;;;;;;;9.87;8.20;;;32.20;25.60;;;;;;5032743;28;20432;-80
2022/03/13 11:13:52;;;;;;;7.97;6.63;;;31.50;25.40;;;;;;5013841;28;20456;-80
2022/03/13 11:16:26;;;;;;;10.70;7.40;;;31.90;25.90;;;;;;5028322;28;20454;-79
2022/03/13 11:18:54;;;;;;;10.60;8.00;;;32.10;25.80;;;;;;5028501;28;20955;-80
2022/03/13 11:21:21;;;;;;;9.60;7.00;;;30.90;25.50;;;;;;5011688;28;20432;-81
2022/03/13 11:23:47;;;;;;;10.27;7.47;;;30.00;26.30;;;;;;5028395;28;20465;-80
2022/03/13 11:26:18;;;;;;;12.00;8.50;;;30.20;26.40;;;;;;5012527;28;20922;-81
2022/03/13 11:28:44;;;;;;;11.53;7.93;;;31.10;25.90;;;;;;5012664;28;20181;-82
2022/03/13 11:31:32;;;;;;;10.47;7.13;;;32.20;25.90;;;;;;5011180;28;20459;-79
2022/03/13 11:34:12;;;;;;;8.97;6.90;;;32.80;25.40;;;;;;5011394;28;20428;-80
2022/03/13 11:36:39;;;;;;;9.40;7.13;;;33.30;25.30;;;;;;5012274;28;20420;-80
2022/03/13 11:39:06;;;;;;;9.53;7.53;;;34.90;23.80;;;;;;5012585;28;20444;-81
2022/03/13 11:41:47;;;;;;;10.33;7.80;;;34.90;24.10;;;;;;5012340;28;20447;-80
2022/03/13 11:44:19;;;;;;;10.07;8.30;;;35.60;23.80;;;;;;5012870;28;20396;-80
2022/03/13 11:46:47;;;;;;;12.07;8.40;;;36.10;24.30;;;;;;5012326;28;20916;-80
2022/03/13 11:49:34;;;;;;;8.73;7.43;;;36.00;23.60;;;;;;5012608;28;20412;-80
2022/03/13 11:52:16;;;;;;;10.20;7.70;;;35.60;24.20;;;;;;5027534;28;20463;-80
2022/03/13 11:54:55;;;;;;;9.63;6.93;;;36.30;24.10;;;;;;5012425;28;20422;-80
2022/03/13 11:57:41;;;;;;;10.47;7.37;;;36.30;23.20;;;;;;5011893;28;20396;-80
2022/03/13 12:00:12;;;;;;;8.20;7.17;;;35.70;23.40;;;;;;5012431;28;20396;-80
2022/03/13 12:02:41;;;;;;;9.40;7.70;;;34.10;23.40;;;;;;5027346;28;20547;-81
2022/03/13 12:05:27;;;;;;;10.10;7.80;;;32.30;24.20;;;;;;5027490;28;20426;-80
2022/03/13 12:08:04;;;;;;;11.13;7.50;;;30.30;25.00;;;;;;5027287;28;20427;-82
2022/03/13 12:10:41;;;;;;;9.40;6.67;;;29.10;26.10;;;;;;5012372;28;20557;-80
2022/03/13 12:13:11;;;;;;;10.53;7.90;;;29.40;26.70;;;;;;5027231;28;20494;-82
2022/03/13 12:15:39;;;;;;;7.40;6.17;;;30.40;26.30;;;;;;5012069;28;20821;-82
2022/03/13 12:18:33;;;;;;;9.43;7.10;;;31.20;25.90;;;;;;5011820;28;20543;-83
2022/03/13 12:21:10;;;;;;;9.33;6.77;;;30.20;25.50;;;;;;5010645;28;20461;-81
2022/03/13 12:23:38;;;;;;;10.30;7.93;;;28.70;25.90;;;;;;5012279;28;20794;-81
2022/03/13 12:26:22;;;;;;;10.37;7.63;;;28.00;27.40;;;;;;5012167;28;20542;-79
2022/03/13 12:28:49;;;;;;;11.00;8.30;;;27.20;27.50;;;;;;5027161;28;20423;-83
2022/03/13 12:36:19;;;;;;;13.10;7.37;;;28.70;27.90;;;;;;5011617;28;21002;-64
2022/03/13 12:38:49;;;;;;;12.03;7.50;;;;;;;;;;5018246;28;20511;-66
2022/03/13 12:41:15;;;;;;;9.17;7.17;;;30.80;25.80;;;;;;5027713;28;20411;-66
2022/03/13 12:43:50;;;;;;;11.30;7.20;;;30.80;26.60;;;;;;5029815;28;20975;-66
2022/03/13 12:46:18;;;;;;;10.30;7.13;;;31.40;26.30;;;;;;5029328;28;20448;-65
2022/03/13 12:48:55;;;;;;;9.40;6.50;;;30.90;25.90;;;;;;5029588;28;20423;-65
2022/03/13 12:51:44;;;;;;;8.47;6.50;;;29.90;26.90;;;;;;5029966;28;20426;-66
2022/03/13 12:54:22;;;;;;;7.10;5.70;;;29.40;27.80;;;;;;5030928;28;20541;-65
2022/03/13 12:56:52;;;;;;;7.93;6.13;;;29.10;28.00;;;;;;5033042;28;20493;-65
2022/03/13 12:59:33;;;;;;;8.60;6.50;;;29.00;27.80;;;;;;5033640;28;20415;-64
2022/03/13 13:02:10;;;;;;;12.10;7.13;;;28.30;27.50;;;;;;5033541;28;20480;-66